Portada
METAR-TAF:

METAR-TAF

Aeroports :

Delta, Utah, Estats Units d'Amèrica

latitud: 39-22-50N, longitud: 112-30-28W, altitud: 1451 m

Observació

L'informe es va fer fa 24 minuts, a les 07:55 UTC
Vent 3 kt del Est/Nord-Est
Temperatura -1°C
Humitat 93%
Pressió 1022 hPa
Visibilitat: 16.1 km
Cel clar

METAR: KDTA 260755Z AUTO 06003KT 10SM CLR M01/M02 A3019 RMK AO1

Hora: 01:19 (08:19 UTC)


TAF: manca

Observacions i pronòstics meteorològics de més de 4000 aeroports (METAR i TAF).

Les estacions disponibles són els punts grocs i vermells al mapa.

Posi el ratolí al punt desitjat per veure el nom de l'estació.

Feu clic per veure les observacions i els pronòstics meteorològics.

Per canviar el mapa: feu clic els botons verds amb una creu de color negre per apropar; al botó verd amb un guió per allunyar la imatge; o en les fletxes verdes per a mapes adjacents.


METAR-TAF: